sensor_id;sensor_type;location;lat;lon;timestamp;P1;durP1;ratioP1;P2;durP2;ratioP2
13959;SDS011;7052;51.050;3.716;2024-01-27T00:00:55;13.40;;;7.80;;
13959;SDS011;7052;51.050;3.716;2024-01-27T00:03:23;12.40;;;7.77;;
13959;SDS011;7052;51.050;3.716;2024-01-27T00:05:50;19.77;;;7.47;;
13959;SDS011;7052;51.050;3.716;2024-01-27T00:08:17;17.27;;;8.30;;
13959;SDS011;7052;51.050;3.716;2024-01-27T00:10:46;13.63;;;7.50;;
13959;SDS011;7052;51.050;3.716;2024-01-27T00:13:13;17.00;;;7.67;;
13959;SDS011;7052;51.050;3.716;2024-01-27T00:15:40;15.47;;;8.53;;
13959;SDS011;7052;51.050;3.716;2024-01-27T00:18:09;18.27;;;8.27;;
13959;SDS011;7052;51.050;3.716;2024-01-27T00:20:37;27.47;;;16.77;;
13959;SDS011;7052;51.050;3.716;2024-01-27T00:23:05;19.37;;;11.00;;
13959;SDS011;7052;51.050;3.716;2024-01-27T00:25:33;15.00;;;8.87;;
13959;SDS011;7052;51.050;3.716;2024-01-27T00:28:00;18.00;;;8.80;;
13959;SDS011;7052;51.050;3.716;2024-01-27T00:30:28;13.60;;;8.40;;
13959;SDS011;7052;51.050;3.716;2024-01-27T00:32:57;19.40;;;8.27;;
13959;SDS011;7052;51.050;3.716;2024-01-27T00:35:25;17.73;;;8.60;;
13959;SDS011;7052;51.050;3.716;2024-01-27T00:37:52;18.93;;;11.60;;
13959;SDS011;7052;51.050;3.716;2024-01-27T00:40:20;16.47;;;8.03;;
13959;SDS011;7052;51.050;3.716;2024-01-27T00:42:47;14.43;;;8.00;;
13959;SDS011;7052;51.050;3.716;2024-01-27T00:45:14;15.73;;;8.00;;
13959;SDS011;7052;51.050;3.716;2024-01-27T00:47:42;15.37;;;7.87;;
13959;SDS011;7052;51.050;3.716;2024-01-27T00:50:10;16.90;;;8.57;;
13959;SDS011;7052;51.050;3.716;2024-01-27T00:52:46;19.57;;;8.30;;
13959;SDS011;7052;51.050;3.716;2024-01-27T00:55:13;18.17;;;9.30;;
13959;SDS011;7052;51.050;3.716;2024-01-27T00:57:40;16.00;;;9.47;;
13959;SDS011;7052;51.050;3.716;2024-01-27T01:00:08;15.47;;;8.73;;
13959;SDS011;7052;51.050;3.716;2024-01-27T01:02:37;22.23;;;9.13;;
13959;SDS011;7052;51.050;3.716;2024-01-27T01:05:06;21.63;;;12.77;;
13959;SDS011;7052;51.050;3.716;2024-01-27T01:07:34;19.73;;;9.37;;
13959;SDS011;7052;51.050;3.716;2024-01-27T01:10:06;22.77;;;10.83;;
13959;SDS011;7052;51.050;3.716;2024-01-27T01:12:34;15.90;;;9.20;;
13959;SDS011;7052;51.050;3.716;2024-01-27T01:15:01;17.47;;;9.20;;
13959;SDS011;7052;51.050;3.716;2024-01-27T01:17:28;19.73;;;8.87;;
13959;SDS011;7052;51.050;3.716;2024-01-27T01:20:00;14.37;;;8.70;;
13959;SDS011;7052;51.050;3.716;2024-01-27T01:22:27;16.60;;;9.20;;
13959;SDS011;7052;51.050;3.716;2024-01-27T01:24:54;19.03;;;9.17;;
13959;SDS011;7052;51.050;3.716;2024-01-27T01:27:35;16.93;;;8.87;;
13959;SDS011;7052;51.050;3.716;2024-01-27T01:30:02;15.70;;;9.70;;
13959;SDS011;7052;51.050;3.716;2024-01-27T01:32:30;17.43;;;9.37;;
13959;SDS011;7052;51.050;3.716;2024-01-27T01:35:01;21.93;;;9.93;;
13959;SDS011;7052;51.050;3.716;2024-01-27T01:37:29;18.17;;;9.73;;
13959;SDS011;7052;51.050;3.716;2024-01-27T01:39:58;17.93;;;9.70;;
13959;SDS011;7052;51.050;3.716;2024-01-27T01:42:27;16.33;;;9.30;;
13959;SDS011;7052;51.050;3.716;2024-01-27T01:44:54;15.40;;;9.50;;
13959;SDS011;7052;51.050;3.716;2024-01-27T01:47:22;23.73;;;9.80;;
13959;SDS011;7052;51.050;3.716;2024-01-27T01:49:52;20.37;;;8.87;;
13959;SDS011;7052;51.050;3.716;2024-01-27T01:52:20;15.10;;;8.93;;
13959;SDS011;7052;51.050;3.716;2024-01-27T01:54:49;16.80;;;9.00;;
13959;SDS011;7052;51.050;3.716;2024-01-27T01:57:17;16.93;;;9.87;;
13959;SDS011;7052;51.050;3.716;2024-01-27T01:59:46;14.83;;;9.43;;
13959;SDS011;7052;51.050;3.716;2024-01-27T02:02:13;16.10;;;8.90;;
13959;SDS011;7052;51.050;3.716;2024-01-27T02:04:41;14.87;;;9.27;;
13959;SDS011;7052;51.050;3.716;2024-01-27T02:07:11;21.97;;;11.00;;
13959;SDS011;7052;51.050;3.716;2024-01-27T02:09:39;17.10;;;9.53;;
13959;SDS011;7052;51.050;3.716;2024-01-27T02:12:07;16.40;;;10.30;;
13959;SDS011;7052;51.050;3.716;2024-01-27T02:14:34;18.57;;;10.47;;
13959;SDS011;7052;51.050;3.716;2024-01-27T02:17:03;19.30;;;9.70;;
13959;SDS011;7052;51.050;3.716;2024-01-27T02:19:31;21.70;;;9.60;;
13959;SDS011;7052;51.050;3.716;2024-01-27T02:22:01;20.53;;;9.50;;
13959;SDS011;7052;51.050;3.716;2024-01-27T02:24:30;15.83;;;8.80;;
13959;SDS011;7052;51.050;3.716;2024-01-27T02:26:57;14.40;;;9.00;;
13959;SDS011;7052;51.050;3.716;2024-01-27T02:29:26;24.73;;;14.80;;
13959;SDS011;7052;51.050;3.716;2024-01-27T02:31:54;15.83;;;9.27;;
13959;SDS011;7052;51.050;3.716;2024-01-27T02:34:22;16.73;;;9.53;;
13959;SDS011;7052;51.050;3.716;2024-01-27T02:36:49;16.83;;;9.20;;
13959;SDS011;7052;51.050;3.716;2024-01-27T02:39:17;19.53;;;10.13;;
13959;SDS011;7052;51.050;3.716;2024-01-27T02:41:48;18.40;;;9.60;;
13959;SDS011;7052;51.050;3.716;2024-01-27T02:44:14;15.10;;;9.10;;
13959;SDS011;7052;51.050;3.716;2024-01-27T02:46:42;17.03;;;8.57;;
13959;SDS011;7052;51.050;3.716;2024-01-27T02:49:09;16.47;;;8.83;;
13959;SDS011;7052;51.050;3.716;2024-01-27T02:51:36;18.80;;;10.03;;
13959;SDS011;7052;51.050;3.716;2024-01-27T02:54:03;16.60;;;8.93;;
13959;SDS011;7052;51.050;3.716;2024-01-27T02:56:31;14.70;;;9.17;;
13959;SDS011;7052;51.050;3.716;2024-01-27T02:59:00;14.37;;;9.10;;
13959;SDS011;7052;51.050;3.716;2024-01-27T03:01:35;16.03;;;9.20;;
13959;SDS011;7052;51.050;3.716;2024-01-27T03:04:09;17.07;;;8.80;;
13959;SDS011;7052;51.050;3.716;2024-01-27T03:06:39;17.03;;;8.70;;
13959;SDS011;7052;51.050;3.716;2024-01-27T03:09:06;16.60;;;8.90;;
13959;SDS011;7052;51.050;3.716;2024-01-27T03:11:36;19.87;;;8.67;;
13959;SDS011;7052;51.050;3.716;2024-01-27T03:14:04;14.70;;;8.50;;
13959;SDS011;7052;51.050;3.716;2024-01-27T03:16:32;16.33;;;8.57;;
13959;SDS011;7052;51.050;3.716;2024-01-27T03:19:01;15.50;;;8.90;;
13959;SDS011;7052;51.050;3.716;2024-01-27T03:21:29;19.40;;;8.93;;
13959;SDS011;7052;51.050;3.716;2024-01-27T03:23:56;18.20;;;8.70;;
13959;SDS011;7052;51.050;3.716;2024-01-27T03:26:23;17.90;;;8.47;;
13959;SDS011;7052;51.050;3.716;2024-01-27T03:28:51;16.90;;;8.07;;
13959;SDS011;7052;51.050;3.716;2024-01-27T03:31:19;17.20;;;8.10;;
13959;SDS011;7052;51.050;3.716;2024-01-27T03:33:46;15.63;;;7.93;;
13959;SDS011;7052;51.050;3.716;2024-01-27T03:36:13;19.93;;;8.67;;
13959;SDS011;7052;51.050;3.716;2024-01-27T03:38:41;17.97;;;7.83;;
13959;SDS011;7052;51.050;3.716;2024-01-27T03:41:08;15.63;;;7.93;;
13959;SDS011;7052;51.050;3.716;2024-01-27T03:43:35;15.27;;;8.10;;
13959;SDS011;7052;51.050;3.716;2024-01-27T03:46:02;15.30;;;8.57;;
13959;SDS011;7052;51.050;3.716;2024-01-27T03:48:31;15.10;;;8.07;;
13959;SDS011;7052;51.050;3.716;2024-01-27T03:51:00;20.37;;;9.33;;
13959;SDS011;7052;51.050;3.716;2024-01-27T03:53:32;17.00;;;7.80;;
13959;SDS011;7052;51.050;3.716;2024-01-27T03:55:59;16.33;;;8.20;;
13959;SDS011;7052;51.050;3.716;2024-01-27T03:58:29;14.57;;;7.93;;
13959;SDS011;7052;51.050;3.716;2024-01-27T04:00:56;15.20;;;8.37;;
13959;SDS011;7052;51.050;3.716;2024-01-27T04:03:26;17.70;;;7.70;;
13959;SDS011;7052;51.050;3.716;2024-01-27T04:05:55;16.13;;;8.37;;
13959;SDS011;7052;51.050;3.716;2024-01-27T04:08:24;15.67;;;8.03;;
13959;SDS011;7052;51.050;3.716;2024-01-27T04:10:51;22.03;;;9.00;;
13959;SDS011;7052;51.050;3.716;2024-01-27T04:13:18;15.33;;;8.60;;
13959;SDS011;7052;51.050;3.716;2024-01-27T04:15:44;16.93;;;8.17;;
13959;SDS011;7052;51.050;3.716;2024-01-27T04:18:13;15.17;;;8.37;;
13959;SDS011;7052;51.050;3.716;2024-01-27T04:20:40;19.13;;;8.57;;
13959;SDS011;7052;51.050;3.716;2024-01-27T04:23:12;18.17;;;7.83;;
13959;SDS011;7052;51.050;3.716;2024-01-27T04:25:39;19.03;;;8.30;;
13959;SDS011;7052;51.050;3.716;2024-01-27T04:28:06;16.40;;;7.67;;
13959;SDS011;7052;51.050;3.716;2024-01-27T04:30:35;16.57;;;7.90;;
13959;SDS011;7052;51.050;3.716;2024-01-27T04:33:03;12.03;;;8.03;;
13959;SDS011;7052;51.050;3.716;2024-01-27T04:35:32;16.33;;;7.90;;
13959;SDS011;7052;51.050;3.716;2024-01-27T04:37:59;13.87;;;8.13;;
13959;SDS011;7052;51.050;3.716;2024-01-27T04:40:28;18.13;;;8.50;;
13959;SDS011;7052;51.050;3.716;2024-01-27T04:42:55;19.90;;;8.17;;
13959;SDS011;7052;51.050;3.716;2024-01-27T04:45:23;14.17;;;7.90;;
13959;SDS011;7052;51.050;3.716;2024-01-27T04:47:50;15.93;;;7.57;;
13959;SDS011;7052;51.050;3.716;2024-01-27T04:50:17;16.27;;;7.97;;
13959;SDS011;7052;51.050;3.716;2024-01-27T04:52:44;18.20;;;8.27;;
13959;SDS011;7052;51.050;3.716;2024-01-27T04:55:11;20.00;;;8.47;;
13959;SDS011;7052;51.050;3.716;2024-01-27T04:57:40;14.47;;;7.50;;
13959;SDS011;7052;51.050;3.716;2024-01-27T05:00:08;15.10;;;7.63;;
13959;SDS011;7052;51.050;3.716;2024-01-27T05:02:38;18.47;;;7.73;;
13959;SDS011;7052;51.050;3.716;2024-01-27T05:05:06;18.47;;;8.17;;
13959;SDS011;7052;51.050;3.716;2024-01-27T05:07:33;21.57;;;8.63;;
13959;SDS011;7052;51.050;3.716;2024-01-27T05:10:05;17.27;;;7.53;;
13959;SDS011;7052;51.050;3.716;2024-01-27T05:12:33;13.70;;;7.67;;
13959;SDS011;7052;51.050;3.716;2024-01-27T05:15:03;14.00;;;8.23;;
13959;SDS011;7052;51.050;3.716;2024-01-27T05:17:32;14.03;;;7.57;;
13959;SDS011;7052;51.050;3.716;2024-01-27T05:19:59;21.80;;;8.43;;
13959;SDS011;7052;51.050;3.716;2024-01-27T05:22:30;18.47;;;7.57;;
13959;SDS011;7052;51.050;3.716;2024-01-27T05:24:59;16.67;;;8.43;;
13959;SDS011;7052;51.050;3.716;2024-01-27T05:27:27;17.90;;;8.30;;
13959;SDS011;7052;51.050;3.716;2024-01-27T05:29:55;16.03;;;7.80;;
13959;SDS011;7052;51.050;3.716;2024-01-27T05:32:23;14.67;;;7.47;;
13959;SDS011;7052;51.050;3.716;2024-01-27T05:34:51;16.00;;;8.00;;
13959;SDS011;7052;51.050;3.716;2024-01-27T05:37:18;16.70;;;7.83;;
13959;SDS011;7052;51.050;3.716;2024-01-27T05:39:45;17.00;;;7.77;;
13959;SDS011;7052;51.050;3.716;2024-01-27T05:42:12;15.90;;;8.00;;
13959;SDS011;7052;51.050;3.716;2024-01-27T05:44:39;16.00;;;8.13;;
13959;SDS011;7052;51.050;3.716;2024-01-27T05:47:07;19.53;;;7.53;;
13959;SDS011;7052;51.050;3.716;2024-01-27T05:49:37;18.13;;;7.67;;
13959;SDS011;7052;51.050;3.716;2024-01-27T05:52:04;14.73;;;7.37;;
13959;SDS011;7052;51.050;3.716;2024-01-27T05:54:31;13.43;;;7.40;;
13959;SDS011;7052;51.050;3.716;2024-01-27T05:57:02;16.63;;;7.97;;
13959;SDS011;7052;51.050;3.716;2024-01-27T05:59:29;12.93;;;7.40;;
13959;SDS011;7052;51.050;3.716;2024-01-27T06:01:56;19.37;;;7.53;;
13959;SDS011;7052;51.050;3.716;2024-01-27T06:04:24;20.10;;;7.27;;
13959;SDS011;7052;51.050;3.716;2024-01-27T06:06:58;14.63;;;7.03;;
13959;SDS011;7052;51.050;3.716;2024-01-27T06:09:25;14.57;;;7.83;;
13959;SDS011;7052;51.050;3.716;2024-01-27T06:11:59;18.17;;;7.30;;
13959;SDS011;7052;51.050;3.716;2024-01-27T06:14:27;13.73;;;7.43;;
13959;SDS011;7052;51.050;3.716;2024-01-27T06:16:54;18.33;;;7.27;;
13959;SDS011;7052;51.050;3.716;2024-01-27T06:19:22;15.77;;;8.27;;
13959;SDS011;7052;51.050;3.716;2024-01-27T06:21:49;19.73;;;8.80;;
13959;SDS011;7052;51.050;3.716;2024-01-27T06:24:17;17.20;;;7.97;;
13959;SDS011;7052;51.050;3.716;2024-01-27T06:26:44;15.30;;;8.47;;
13959;SDS011;7052;51.050;3.716;2024-01-27T06:29:11;18.70;;;8.20;;
13959;SDS011;7052;51.050;3.716;2024-01-27T06:31:40;18.27;;;8.00;;
13959;SDS011;7052;51.050;3.716;2024-01-27T06:34:07;18.47;;;8.20;;
13959;SDS011;7052;51.050;3.716;2024-01-27T06:36:36;18.40;;;8.20;;
13959;SDS011;7052;51.050;3.716;2024-01-27T06:39:05;14.00;;;7.47;;
13959;SDS011;7052;51.050;3.716;2024-01-27T06:41:36;14.30;;;7.30;;
13959;SDS011;7052;51.050;3.716;2024-01-27T06:44:04;16.60;;;8.40;;
13959;SDS011;7052;51.050;3.716;2024-01-27T06:46:32;17.20;;;7.60;;
13959;SDS011;7052;51.050;3.716;2024-01-27T06:49:00;14.63;;;7.67;;
13959;SDS011;7052;51.050;3.716;2024-01-27T06:51:27;18.83;;;7.60;;
13959;SDS011;7052;51.050;3.716;2024-01-27T06:53:54;17.27;;;8.27;;
13959;SDS011;7052;51.050;3.716;2024-01-27T06:56:21;17.67;;;8.53;;
13959;SDS011;7052;51.050;3.716;2024-01-27T06:58:49;23.73;;;8.30;;
13959;SDS011;7052;51.050;3.716;2024-01-27T07:01:16;12.73;;;7.00;;
13959;SDS011;7052;51.050;3.716;2024-01-27T07:03:43;15.50;;;8.20;;
13959;SDS011;7052;51.050;3.716;2024-01-27T07:06:11;16.80;;;7.50;;
13959;SDS011;7052;51.050;3.716;2024-01-27T07:08:39;17.60;;;7.60;;
13959;SDS011;7052;51.050;3.716;2024-01-27T07:11:06;14.37;;;7.60;;
13959;SDS011;7052;51.050;3.716;2024-01-27T07:13:35;18.63;;;8.17;;
13959;SDS011;7052;51.050;3.716;2024-01-27T07:16:04;16.30;;;7.70;;
13959;SDS011;7052;51.050;3.716;2024-01-27T07:18:32;16.13;;;7.50;;
13959;SDS011;7052;51.050;3.716;2024-01-27T07:21:00;16.60;;;7.70;;
13959;SDS011;7052;51.050;3.716;2024-01-27T07:23:28;14.57;;;6.90;;
13959;SDS011;7052;51.050;3.716;2024-01-27T07:25:58;24.17;;;9.07;;
13959;SDS011;7052;51.050;3.716;2024-01-27T07:28:28;29.73;;;16.30;;
13959;SDS011;7052;51.050;3.716;2024-01-27T07:30:57;47.87;;;23.67;;
13959;SDS011;7052;51.050;3.716;2024-01-27T07:33:26;32.93;;;15.87;;
13959;SDS011;7052;51.050;3.716;2024-01-27T07:35:53;13.97;;;8.03;;
13959;SDS011;7052;51.050;3.716;2024-01-27T07:38:20;16.33;;;7.57;;
13959;SDS011;7052;51.050;3.716;2024-01-27T07:40:47;14.87;;;7.13;;
13959;SDS011;7052;51.050;3.716;2024-01-27T07:43:15;15.97;;;7.27;;
13959;SDS011;7052;51.050;3.716;2024-01-27T07:45:42;16.73;;;7.20;;
13959;SDS011;7052;51.050;3.716;2024-01-27T07:48:09;15.87;;;7.00;;
13959;SDS011;7052;51.050;3.716;2024-01-27T07:50:38;16.33;;;7.23;;
13959;SDS011;7052;51.050;3.716;2024-01-27T07:53:05;16.77;;;8.07;;
13959;SDS011;7052;51.050;3.716;2024-01-27T07:55:32;14.13;;;7.27;;
13959;SDS011;7052;51.050;3.716;2024-01-27T07:57:59;18.53;;;8.27;;
13959;SDS011;7052;51.050;3.716;2024-01-27T08:00:26;14.17;;;7.60;;
13959;SDS011;7052;51.050;3.716;2024-01-27T08:02:56;17.83;;;7.13;;
13959;SDS011;7052;51.050;3.716;2024-01-27T08:05:23;15.10;;;7.10;;
13959;SDS011;7052;51.050;3.716;2024-01-27T08:07:51;15.70;;;7.40;;
13959;SDS011;7052;51.050;3.716;2024-01-27T08:10:18;16.97;;;6.53;;
13959;SDS011;7052;51.050;3.716;2024-01-27T08:12:46;18.23;;;7.63;;
13959;SDS011;7052;51.050;3.716;2024-01-27T08:15:14;19.30;;;7.50;;
13959;SDS011;7052;51.050;3.716;2024-01-27T08:17:41;18.83;;;7.00;;
13959;SDS011;7052;51.050;3.716;2024-01-27T08:20:09;19.13;;;7.37;;
13959;SDS011;7052;51.050;3.716;2024-01-27T08:22:36;17.87;;;7.30;;
13959;SDS011;7052;51.050;3.716;2024-01-27T08:25:08;16.40;;;6.80;;
13959;SDS011;7052;51.050;3.716;2024-01-27T08:27:35;16.10;;;7.37;;
13959;SDS011;7052;51.050;3.716;2024-01-27T08:30:02;19.50;;;7.43;;
13959;SDS011;7052;51.050;3.716;2024-01-27T08:32:32;17.53;;;7.60;;
13959;SDS011;7052;51.050;3.716;2024-01-27T08:34:59;15.70;;;6.27;;
13959;SDS011;7052;51.050;3.716;2024-01-27T08:37:27;18.03;;;7.40;;
13959;SDS011;7052;51.050;3.716;2024-01-27T08:39:54;19.07;;;7.23;;
13959;SDS011;7052;51.050;3.716;2024-01-27T08:42:23;18.10;;;7.83;;
13959;SDS011;7052;51.050;3.716;2024-01-27T08:44:50;16.93;;;7.30;;
13959;SDS011;7052;51.050;3.716;2024-01-27T08:47:17;14.60;;;7.20;;
13959;SDS011;7052;51.050;3.716;2024-01-27T08:49:44;13.57;;;7.17;;
13959;SDS011;7052;51.050;3.716;2024-01-27T08:52:11;13.87;;;7.23;;
13959;SDS011;7052;51.050;3.716;2024-01-27T08:54:38;16.43;;;7.50;;
13959;SDS011;7052;51.050;3.716;2024-01-27T08:57:08;18.03;;;7.07;;
13959;SDS011;7052;51.050;3.716;2024-01-27T08:59:36;17.43;;;7.40;;
13959;SDS011;7052;51.050;3.716;2024-01-27T09:02:04;16.50;;;7.80;;
13959;SDS011;7052;51.050;3.716;2024-01-27T09:04:31;15.57;;;7.20;;
13959;SDS011;7052;51.050;3.716;2024-01-27T09:07:00;17.37;;;7.43;;
13959;SDS011;7052;51.050;3.716;2024-01-27T09:09:28;15.30;;;7.07;;
13959;SDS011;7052;51.050;3.716;2024-01-27T09:11:55;17.17;;;6.73;;
13959;SDS011;7052;51.050;3.716;2024-01-27T09:14:22;17.17;;;6.73;;
13959;SDS011;7052;51.050;3.716;2024-01-27T09:16:54;18.13;;;7.43;;
13959;SDS011;7052;51.050;3.716;2024-01-27T09:19:23;14.40;;;6.40;;
13959;SDS011;7052;51.050;3.716;2024-01-27T09:21:50;19.63;;;7.47;;
13959;SDS011;7052;51.050;3.716;2024-01-27T09:24:20;10.90;;;6.70;;
13959;SDS011;7052;51.050;3.716;2024-01-27T09:26:47;12.70;;;6.90;;
13959;SDS011;7052;51.050;3.716;2024-01-27T09:29:17;18.13;;;6.77;;
13959;SDS011;7052;51.050;3.716;2024-01-27T09:31:46;17.83;;;7.23;;
13959;SDS011;7052;51.050;3.716;2024-01-27T09:34:15;17.10;;;6.43;;
13959;SDS011;7052;51.050;3.716;2024-01-27T09:36:43;16.53;;;7.13;;
13959;SDS011;7052;51.050;3.716;2024-01-27T09:39:10;13.80;;;6.27;;
13959;SDS011;7052;51.050;3.716;2024-01-27T09:41:38;17.63;;;7.13;;
13959;SDS011;7052;51.050;3.716;2024-01-27T09:44:05;13.50;;;6.87;;
13959;SDS011;7052;51.050;3.716;2024-01-27T09:46:33;14.93;;;6.70;;
13959;SDS011;7052;51.050;3.716;2024-01-27T09:49:00;13.87;;;6.70;;
13959;SDS011;7052;51.050;3.716;2024-01-27T09:51:34;22.37;;;7.30;;
13959;SDS011;7052;51.050;3.716;2024-01-27T09:54:03;19.40;;;7.77;;
13959;SDS011;7052;51.050;3.716;2024-01-27T09:56:32;14.33;;;6.97;;
13959;SDS011;7052;51.050;3.716;2024-01-27T09:59:00;17.47;;;7.13;;
13959;SDS011;7052;51.050;3.716;2024-01-27T10:01:28;13.60;;;6.83;;
13959;SDS011;7052;51.050;3.716;2024-01-27T10:03:55;16.90;;;6.83;;
13959;SDS011;7052;51.050;3.716;2024-01-27T10:06:23;18.53;;;6.80;;
13959;SDS011;7052;51.050;3.716;2024-01-27T10:08:53;19.50;;;7.00;;
13959;SDS011;7052;51.050;3.716;2024-01-27T10:11:24;15.17;;;6.17;;
13959;SDS011;7052;51.050;3.716;2024-01-27T10:13:57;18.63;;;6.63;;
13959;SDS011;7052;51.050;3.716;2024-01-27T10:16:26;14.93;;;5.77;;
13959;SDS011;7052;51.050;3.716;2024-01-27T10:19:00;15.80;;;5.63;;
13959;SDS011;7052;51.050;3.716;2024-01-27T10:21:29;17.73;;;5.60;;
13959;SDS011;7052;51.050;3.716;2024-01-27T10:23:59;14.90;;;5.87;;
13959;SDS011;7052;51.050;3.716;2024-01-27T10:26:31;17.40;;;6.73;;
13959;SDS011;7052;51.050;3.716;2024-01-27T10:29:00;15.07;;;5.27;;
13959;SDS011;7052;51.050;3.716;2024-01-27T10:31:28;13.43;;;5.73;;
13959;SDS011;7052;51.050;3.716;2024-01-27T10:33:57;21.70;;;6.00;;
13959;SDS011;7052;51.050;3.716;2024-01-27T10:36:26;17.90;;;4.80;;
13959;SDS011;7052;51.050;3.716;2024-01-27T10:39:15;18.47;;;5.40;;
13959;SDS011;7052;51.050;3.716;2024-01-27T10:41:44;14.37;;;5.67;;
13959;SDS011;7052;51.050;3.716;2024-01-27T10:44:17;19.33;;;5.97;;
13959;SDS011;7052;51.050;3.716;2024-01-27T10:46:47;16.07;;;5.67;;
13959;SDS011;7052;51.050;3.716;2024-01-27T10:49:16;15.40;;;5.47;;
13959;SDS011;7052;51.050;3.716;2024-01-27T10:51:45;13.37;;;5.73;;
13959;SDS011;7052;51.050;3.716;2024-01-27T10:54:18;14.80;;;5.00;;
13959;SDS011;7052;51.050;3.716;2024-01-27T10:56:49;13.33;;;5.37;;
13959;SDS011;7052;51.050;3.716;2024-01-27T10:59:22;10.17;;;4.97;;
13959;SDS011;7052;51.050;3.716;2024-01-27T11:01:52;12.17;;;4.67;;
13959;SDS011;7052;51.050;3.716;2024-01-27T11:04:20;12.37;;;4.60;;
13959;SDS011;7052;51.050;3.716;2024-01-27T11:06:50;8.53;;;4.00;;
13959;SDS011;7052;51.050;3.716;2024-01-27T11:09:37;18.57;;;5.20;;
13959;SDS011;7052;51.050;3.716;2024-01-27T11:12:06;17.20;;;5.17;;
13959;SDS011;7052;51.050;3.716;2024-01-27T11:14:34;16.23;;;5.13;;
13959;SDS011;7052;51.050;3.716;2024-01-27T11:17:01;14.80;;;5.93;;
13959;SDS011;7052;51.050;3.716;2024-01-27T11:19:29;12.43;;;4.87;;
13959;SDS011;7052;51.050;3.716;2024-01-27T11:22:00;16.67;;;5.70;;
13959;SDS011;7052;51.050;3.716;2024-01-27T11:24:31;17.57;;;5.43;;
13959;SDS011;7052;51.050;3.716;2024-01-27T11:27:03;18.47;;;5.47;;
13959;SDS011;7052;51.050;3.716;2024-01-27T11:29:31;15.67;;;5.07;;
13959;SDS011;7052;51.050;3.716;2024-01-27T11:32:00;27.13;;;6.07;;
13959;SDS011;7052;51.050;3.716;2024-01-27T11:34:40;17.37;;;5.73;;
13959;SDS011;7052;51.050;3.716;2024-01-27T11:37:12;13.23;;;4.97;;
13959;SDS011;7052;51.050;3.716;2024-01-27T11:39:39;20.77;;;5.30;;
13959;SDS011;7052;51.050;3.716;2024-01-27T11:42:10;11.50;;;4.60;;
13959;SDS011;7052;51.050;3.716;2024-01-27T11:44:39;14.73;;;4.93;;
13959;SDS011;7052;51.050;3.716;2024-01-27T11:47:13;12.47;;;5.07;;
13959;SDS011;7052;51.050;3.716;2024-01-27T11:49:42;14.90;;;4.60;;
13959;SDS011;7052;51.050;3.716;2024-01-27T11:52:12;12.10;;;4.97;;
13959;SDS011;7052;51.050;3.716;2024-01-27T11:54:41;17.50;;;5.40;;
13959;SDS011;7052;51.050;3.716;2024-01-27T11:57:10;11.53;;;4.43;;
13959;SDS011;7052;51.050;3.716;2024-01-27T11:59:37;13.47;;;4.47;;
13959;SDS011;7052;51.050;3.716;2024-01-27T12:02:06;18.60;;;5.57;;
13959;SDS011;7052;51.050;3.716;2024-01-27T12:04:34;13.60;;;4.90;;
13959;SDS011;7052;51.050;3.716;2024-01-27T12:07:06;17.30;;;4.40;;
13959;SDS011;7052;51.050;3.716;2024-01-27T12:12:12;12.43;;;4.30;;
13959;SDS011;7052;51.050;3.716;2024-01-27T12:14:41;13.80;;;4.27;;
13959;SDS011;7052;51.050;3.716;2024-01-27T12:17:11;14.83;;;4.93;;
13959;SDS011;7052;51.050;3.716;2024-01-27T12:19:45;14.23;;;4.53;;
13959;SDS011;7052;51.050;3.716;2024-01-27T12:22:23;8.83;;;3.70;;
13959;SDS011;7052;51.050;3.716;2024-01-27T12:24:52;13.37;;;4.53;;
13959;SDS011;7052;51.050;3.716;2024-01-27T12:30:03;13.50;;;3.80;;
13959;SDS011;7052;51.050;3.716;2024-01-27T12:32:32;11.30;;;4.37;;
13959;SDS011;7052;51.050;3.716;2024-01-27T12:35:03;11.63;;;3.73;;
13959;SDS011;7052;51.050;3.716;2024-01-27T12:37:33;9.73;;;3.50;;
13959;SDS011;7052;51.050;3.716;2024-01-27T12:40:02;11.47;;;4.43;;
13959;SDS011;7052;51.050;3.716;2024-01-27T12:42:29;13.40;;;4.23;;
13959;SDS011;7052;51.050;3.716;2024-01-27T12:45:00;19.43;;;4.50;;
13959;SDS011;7052;51.050;3.716;2024-01-27T12:47:27;15.77;;;4.43;;
13959;SDS011;7052;51.050;3.716;2024-01-27T12:49:54;14.53;;;4.53;;
13959;SDS011;7052;51.050;3.716;2024-01-27T12:52:21;14.27;;;4.20;;
13959;SDS011;7052;51.050;3.716;2024-01-27T12:54:50;10.00;;;4.23;;
13959;SDS011;7052;51.050;3.716;2024-01-27T12:57:17;10.93;;;3.93;;
13959;SDS011;7052;51.050;3.716;2024-01-27T12:59:44;8.77;;;3.87;;
13959;SDS011;7052;51.050;3.716;2024-01-27T13:02:19;14.90;;;5.40;;
13959;SDS011;7052;51.050;3.716;2024-01-27T13:04:47;9.40;;;3.80;;
13959;SDS011;7052;51.050;3.716;2024-01-27T13:07:18;13.90;;;4.03;;
13959;SDS011;7052;51.050;3.716;2024-01-27T13:09:46;19.00;;;4.40;;
13959;SDS011;7052;51.050;3.716;2024-01-27T13:12:14;18.50;;;4.90;;
13959;SDS011;7052;51.050;3.716;2024-01-27T13:14:43;12.80;;;4.30;;
13959;SDS011;7052;51.050;3.716;2024-01-27T13:17:10;15.30;;;4.30;;
13959;SDS011;7052;51.050;3.716;2024-01-27T13:19:41;11.00;;;4.13;;
13959;SDS011;7052;51.050;3.716;2024-01-27T13:22:08;11.40;;;4.23;;
13959;SDS011;7052;51.050;3.716;2024-01-27T13:24:36;13.47;;;4.33;;
13959;SDS011;7052;51.050;3.716;2024-01-27T13:27:07;10.47;;;3.90;;
13959;SDS011;7052;51.050;3.716;2024-01-27T13:29:35;12.17;;;4.20;;
13959;SDS011;7052;51.050;3.716;2024-01-27T13:32:02;11.70;;;3.70;;
13959;SDS011;7052;51.050;3.716;2024-01-27T13:34:31;16.90;;;4.83;;
13959;SDS011;7052;51.050;3.716;2024-01-27T13:36:58;14.77;;;4.07;;
13959;SDS011;7052;51.050;3.716;2024-01-27T13:39:28;11.37;;;6.00;;
13959;SDS011;7052;51.050;3.716;2024-01-27T13:41:58;13.97;;;3.57;;
13959;SDS011;7052;51.050;3.716;2024-01-27T13:44:31;12.63;;;3.80;;
13959;SDS011;7052;51.050;3.716;2024-01-27T13:47:00;8.67;;;3.80;;
13959;SDS011;7052;51.050;3.716;2024-01-27T13:49:31;16.07;;;3.97;;
13959;SDS011;7052;51.050;3.716;2024-01-27T13:51:59;10.27;;;3.03;;
13959;SDS011;7052;51.050;3.716;2024-01-27T13:54:28;15.10;;;4.40;;
13959;SDS011;7052;51.050;3.716;2024-01-27T13:56:57;9.47;;;3.60;;
13959;SDS011;7052;51.050;3.716;2024-01-27T13:59:25;6.77;;;3.20;;
13959;SDS011;7052;51.050;3.716;2024-01-27T14:01:54;14.07;;;3.70;;
13959;SDS011;7052;51.050;3.716;2024-01-27T14:04:22;12.07;;;3.67;;
13959;SDS011;7052;51.050;3.716;2024-01-27T14:06:52;10.87;;;4.03;;
13959;SDS011;7052;51.050;3.716;2024-01-27T14:09:19;22.20;;;4.57;;
13959;SDS011;7052;51.050;3.716;2024-01-27T14:11:47;19.30;;;4.43;;
13959;SDS011;7052;51.050;3.716;2024-01-27T14:14:14;14.20;;;4.10;;
13959;SDS011;7052;51.050;3.716;2024-01-27T14:16:43;14.93;;;3.90;;
13959;SDS011;7052;51.050;3.716;2024-01-27T14:19:11;11.87;;;3.63;;
13959;SDS011;7052;51.050;3.716;2024-01-27T14:21:39;11.33;;;3.70;;
13959;SDS011;7052;51.050;3.716;2024-01-27T14:24:08;16.60;;;4.47;;
13959;SDS011;7052;51.050;3.716;2024-01-27T14:26:36;16.03;;;4.37;;
13959;SDS011;7052;51.050;3.716;2024-01-27T14:29:04;11.07;;;4.10;;
13959;SDS011;7052;51.050;3.716;2024-01-27T14:31:36;10.53;;;4.30;;
13959;SDS011;7052;51.050;3.716;2024-01-27T14:34:04;13.87;;;4.33;;
13959;SDS011;7052;51.050;3.716;2024-01-27T14:36:32;16.47;;;4.90;;
13959;SDS011;7052;51.050;3.716;2024-01-27T14:39:04;10.60;;;3.67;;
13959;SDS011;7052;51.050;3.716;2024-01-27T14:41:37;13.80;;;4.70;;
13959;SDS011;7052;51.050;3.716;2024-01-27T14:44:04;12.97;;;4.17;;
13959;SDS011;7052;51.050;3.716;2024-01-27T14:46:34;13.87;;;4.60;;
13959;SDS011;7052;51.050;3.716;2024-01-27T14:49:05;13.37;;;4.30;;
13959;SDS011;7052;51.050;3.716;2024-01-27T14:51:33;21.50;;;5.20;;
13959;SDS011;7052;51.050;3.716;2024-01-27T14:54:14;9.80;;;4.47;;
13959;SDS011;7052;51.050;3.716;2024-01-27T14:56:42;11.37;;;4.30;;
13959;SDS011;7052;51.050;3.716;2024-01-27T14:59:09;13.87;;;4.97;;
13959;SDS011;7052;51.050;3.716;2024-01-27T15:01:37;16.03;;;5.10;;